Gorzow Wlkp, Poland
Current Conditions -  °F | °C
As of 11:00 PM on Friday 26 Dec 2014 (Local Time) from EPZG Reporting Station
Haze Haze  
Wind Chill: 25°   Ceiling: Unl
Heat Index: 25°   Visibility: 2.8mi
Dew Point: 25°   Wind: 0mph
Humidity: 100%   Direction: NA
Pressure: 30.24"   Gusts: NA
Location:  52.75°N, 15.28°E
Report Text: EPZG 262100Z 00000KT 4500 BR NSC M04/M04 Q1024
Loading
Personal Weather Stations






























Interactive Weather Map New forecast layout! Learn more

10-Day Weather Forecast

Advertisements
Track Severe Weather on mobile